sensor_id;sensor_type;location;lat;lon;timestamp;pressure;altitude;pressure_sealevel;temperature;humidity
69060;BME280;56135;37.534;-122.308;2023-04-22T00:00:40;101966.25;;;24.57;49.31
69060;BME280;56135;37.534;-122.308;2023-04-22T00:03:07;101970.31;;;24.48;48.85
69060;BME280;56135;37.534;-122.308;2023-04-22T00:05:33;101967.13;;;24.40;48.73
69060;BME280;56135;37.534;-122.308;2023-04-22T00:08:00;101964.97;;;24.12;50.11
69060;BME280;56135;37.534;-122.308;2023-04-22T00:10:26;101972.03;;;23.97;50.82
69060;BME280;56135;37.534;-122.308;2023-04-22T00:12:52;101977.84;;;23.88;54.24
69060;BME280;56135;37.534;-122.308;2023-04-22T00:15:18;101981.50;;;23.87;53.08
69060;BME280;56135;37.534;-122.308;2023-04-22T00:17:52;101979.19;;;23.79;53.45
69060;BME280;56135;37.534;-122.308;2023-04-22T00:20:19;101972.44;;;23.70;54.22
69060;BME280;56135;37.534;-122.308;2023-04-22T00:22:48;101982.44;;;23.49;53.33
69060;BME280;56135;37.534;-122.308;2023-04-22T00:25:15;101979.72;;;23.30;54.97
69060;BME280;56135;37.534;-122.308;2023-04-22T00:27:41;101977.38;;;23.22;56.88
69060;BME280;56135;37.534;-122.308;2023-04-22T00:30:09;101981.69;;;23.06;56.96
69060;BME280;56135;37.534;-122.308;2023-04-22T00:32:36;101979.44;;;22.96;56.73
69060;BME280;56135;37.534;-122.308;2023-04-22T00:35:03;101964.91;;;22.59;56.01
69060;BME280;56135;37.534;-122.308;2023-04-22T00:37:30;101965.50;;;22.66;57.12
69060;BME280;56135;37.534;-122.308;2023-04-22T00:39:55;101971.31;;;22.57;57.21
69060;BME280;56135;37.534;-122.308;2023-04-22T00:42:22;101974.47;;;22.46;57.65
69060;BME280;56135;37.534;-122.308;2023-04-22T00:44:48;101968.34;;;22.42;58.61
69060;BME280;56135;37.534;-122.308;2023-04-22T00:47:16;101963.84;;;22.43;58.18
69060;BME280;56135;37.534;-122.308;2023-04-22T00:49:42;101966.16;;;22.30;58.34
69060;BME280;56135;37.534;-122.308;2023-04-22T00:52:09;101954.63;;;22.26;60.12
69060;BME280;56135;37.534;-122.308;2023-04-22T00:54:36;101952.34;;;22.17;61.36
69060;BME280;56135;37.534;-122.308;2023-04-22T00:57:05;101951.47;;;22.16;61.03
69060;BME280;56135;37.534;-122.308;2023-04-22T00:59:33;101949.72;;;22.15;60.27
69060;BME280;56135;37.534;-122.308;2023-04-22T01:01:59;101950.94;;;22.08;60.87
69060;BME280;56135;37.534;-122.308;2023-04-22T01:04:26;101946.03;;;21.96;60.51
69060;BME280;56135;37.534;-122.308;2023-04-22T01:06:52;101956.88;;;21.94;61.83
69060;BME280;56135;37.534;-122.308;2023-04-22T01:09:18;101950.72;;;21.91;62.92
69060;BME280;56135;37.534;-122.308;2023-04-22T01:11:47;101949.03;;;21.88;62.05
69060;BME280;56135;37.534;-122.308;2023-04-22T01:14:13;101946.56;;;21.83;62.11
69060;BME280;56135;37.534;-122.308;2023-04-22T01:16:40;101935.56;;;21.90;62.88
69060;BME280;56135;37.534;-122.308;2023-04-22T01:19:09;101937.72;;;21.80;61.59
69060;BME280;56135;37.534;-122.308;2023-04-22T01:21:35;101926.22;;;21.76;62.50
69060;BME280;56135;37.534;-122.308;2023-04-22T01:24:04;101928.25;;;21.71;61.41
69060;BME280;56135;37.534;-122.308;2023-04-22T01:26:32;101923.81;;;21.70;64.18
69060;BME280;56135;37.534;-122.308;2023-04-22T01:29:00;101924.66;;;21.71;62.42
69060;BME280;56135;37.534;-122.308;2023-04-22T01:31:46;101918.34;;;21.72;60.55
69060;BME280;56135;37.534;-122.308;2023-04-22T01:34:12;101914.84;;;21.70;63.61
69060;BME280;56135;37.534;-122.308;2023-04-22T01:36:39;101913.34;;;21.62;63.81
69060;BME280;56135;37.534;-122.308;2023-04-22T01:39:05;101908.13;;;21.59;62.02
69060;BME280;56135;37.534;-122.308;2023-04-22T01:41:32;101918.97;;;21.56;62.46
69060;BME280;56135;37.534;-122.308;2023-04-22T01:43:59;101908.69;;;21.44;61.88
69060;BME280;56135;37.534;-122.308;2023-04-22T01:46:26;101906.31;;;21.36;62.04
69060;BME280;56135;37.534;-122.308;2023-04-22T01:48:52;101911.69;;;21.36;62.66
69060;BME280;56135;37.534;-122.308;2023-04-22T01:51:19;101911.09;;;21.28;63.59
69060;BME280;56135;37.534;-122.308;2023-04-22T01:53:47;101895.56;;;21.12;62.98
69060;BME280;56135;37.534;-122.308;2023-04-22T01:56:13;101896.94;;;21.00;62.99
69060;BME280;56135;37.534;-122.308;2023-04-22T01:58:40;101898.25;;;20.90;63.17
69060;BME280;56135;37.534;-122.308;2023-04-22T02:01:10;101899.25;;;20.86;64.59
69060;BME280;56135;37.534;-122.308;2023-04-22T02:03:37;101900.03;;;20.64;64.60
69060;BME280;56135;37.534;-122.308;2023-04-22T02:06:03;101893.97;;;20.59;64.04
69060;BME280;56135;37.534;-122.308;2023-04-22T02:08:30;101896.59;;;20.36;63.94
69060;BME280;56135;37.534;-122.308;2023-04-22T02:11:16;101909.28;;;20.32;66.59
69060;BME280;56135;37.534;-122.308;2023-04-22T02:13:43;101902.59;;;20.17;66.53
69060;BME280;56135;37.534;-122.308;2023-04-22T02:16:09;101909.31;;;20.04;70.00
69060;BME280;56135;37.534;-122.308;2023-04-22T02:18:35;101910.41;;;19.98;69.13
69060;BME280;56135;37.534;-122.308;2023-04-22T02:21:03;101908.09;;;19.87;69.21
69060;BME280;56135;37.534;-122.308;2023-04-22T02:23:29;101913.13;;;19.70;73.00
69060;BME280;56135;37.534;-122.308;2023-04-22T02:25:55;101911.53;;;19.62;73.13
69060;BME280;56135;37.534;-122.308;2023-04-22T02:28:21;101917.19;;;19.53;74.59
69060;BME280;56135;37.534;-122.308;2023-04-22T02:30:47;101919.50;;;19.37;75.54
69060;BME280;56135;37.534;-122.308;2023-04-22T02:33:14;101913.50;;;19.29;77.80
69060;BME280;56135;37.534;-122.308;2023-04-22T02:35:40;101908.66;;;19.12;80.68
69060;BME280;56135;37.534;-122.308;2023-04-22T02:38:06;101901.81;;;19.02;81.71
69060;BME280;56135;37.534;-122.308;2023-04-22T02:40:32;101909.25;;;18.92;83.03
69060;BME280;56135;37.534;-122.308;2023-04-22T02:42:59;101903.53;;;18.73;87.28
69060;BME280;56135;37.534;-122.308;2023-04-22T02:45:25;101901.06;;;18.65;88.45
69060;BME280;56135;37.534;-122.308;2023-04-22T02:47:51;101899.66;;;18.50;93.42
69060;BME280;56135;37.534;-122.308;2023-04-22T02:50:17;101905.28;;;18.41;92.83
69060;BME280;56135;37.534;-122.308;2023-04-22T02:52:43;101899.34;;;18.29;93.28
69060;BME280;56135;37.534;-122.308;2023-04-22T02:55:10;101898.75;;;18.18;94.14
69060;BME280;56135;37.534;-122.308;2023-04-22T02:57:36;101905.19;;;18.11;95.24
69060;BME280;56135;37.534;-122.308;2023-04-22T03:00:03;101903.31;;;18.13;94.96
69060;BME280;56135;37.534;-122.308;2023-04-22T03:02:29;101904.84;;;17.87;98.25
69060;BME280;56135;37.534;-122.308;2023-04-22T03:04:56;101898.59;;;17.88;97.15
69060;BME280;56135;37.534;-122.308;2023-04-22T03:07:22;101889.19;;;17.72;98.54
69060;BME280;56135;37.534;-122.308;2023-04-22T03:09:48;101882.50;;;17.54;99.91
69060;BME280;56135;37.534;-122.308;2023-04-22T03:12:14;101887.94;;;17.49;100.00
69060;BME280;56135;37.534;-122.308;2023-04-22T03:14:41;101890.78;;;17.43;100.00
69060;BME280;56135;37.534;-122.308;2023-04-22T03:17:07;101892.69;;;17.38;100.00
69060;BME280;56135;37.534;-122.308;2023-04-22T03:19:33;101887.75;;;17.19;100.00
69060;BME280;56135;37.534;-122.308;2023-04-22T03:21:59;101884.31;;;17.14;100.00
69060;BME280;56135;37.534;-122.308;2023-04-22T03:24:25;101891.53;;;17.09;100.00
69060;BME280;56135;37.534;-122.308;2023-04-22T03:26:52;101895.38;;;16.95;100.00
69060;BME280;56135;37.534;-122.308;2023-04-22T03:29:18;101906.88;;;16.97;100.00
69060;BME280;56135;37.534;-122.308;2023-04-22T03:31:44;101905.28;;;16.89;100.00
69060;BME280;56135;37.534;-122.308;2023-04-22T03:34:10;101905.38;;;16.82;100.00
69060;BME280;56135;37.534;-122.308;2023-04-22T03:36:37;101899.47;;;16.66;100.00
69060;BME280;56135;37.534;-122.308;2023-04-22T03:39:03;101905.00;;;16.57;100.00
69060;BME280;56135;37.534;-122.308;2023-04-22T03:41:29;101908.75;;;16.47;100.00
69060;BME280;56135;37.534;-122.308;2023-04-22T03:43:55;101909.94;;;16.30;100.00
69060;BME280;56135;37.534;-122.308;2023-04-22T03:46:21;101902.94;;;16.25;100.00
69060;BME280;56135;37.534;-122.308;2023-04-22T03:48:48;101902.34;;;16.09;100.00
69060;BME280;56135;37.534;-122.308;2023-04-22T03:51:14;101904.31;;;15.97;100.00
69060;BME280;56135;37.534;-122.308;2023-04-22T03:53:40;101898.22;;;15.89;100.00
69060;BME280;56135;37.534;-122.308;2023-04-22T03:56:06;101901.00;;;15.81;100.00
69060;BME280;56135;37.534;-122.308;2023-04-22T03:58:33;101907.28;;;15.76;100.00
69060;BME280;56135;37.534;-122.308;2023-04-22T04:00:59;101910.88;;;15.73;100.00
69060;BME280;56135;37.534;-122.308;2023-04-22T04:03:25;101906.56;;;15.64;100.00
69060;BME280;56135;37.534;-122.308;2023-04-22T04:05:54;101908.41;;;15.62;100.00
69060;BME280;56135;37.534;-122.308;2023-04-22T04:08:20;101905.88;;;15.53;100.00
69060;BME280;56135;37.534;-122.308;2023-04-22T04:10:46;101905.91;;;15.48;100.00
69060;BME280;56135;37.534;-122.308;2023-04-22T04:13:12;101910.47;;;15.40;100.00
69060;BME280;56135;37.534;-122.308;2023-04-22T04:15:39;101905.22;;;15.35;100.00
69060;BME280;56135;37.534;-122.308;2023-04-22T04:18:05;101907.06;;;15.30;100.00
69060;BME280;56135;37.534;-122.308;2023-04-22T04:20:31;101906.38;;;15.16;100.00
69060;BME280;56135;37.534;-122.308;2023-04-22T04:22:58;101909.97;;;15.13;100.00
69060;BME280;56135;37.534;-122.308;2023-04-22T04:25:24;101906.50;;;15.05;100.00
69060;BME280;56135;37.534;-122.308;2023-04-22T04:27:50;101923.50;;;14.96;100.00
69060;BME280;56135;37.534;-122.308;2023-04-22T04:30:17;101928.84;;;14.92;100.00
69060;BME280;56135;37.534;-122.308;2023-04-22T04:32:44;101921.78;;;14.89;100.00
69060;BME280;56135;37.534;-122.308;2023-04-22T04:35:10;101917.47;;;14.77;100.00
69060;BME280;56135;37.534;-122.308;2023-04-22T04:37:43;101924.59;;;14.77;100.00
69060;BME280;56135;37.534;-122.308;2023-04-22T04:40:13;101923.72;;;14.76;100.00
69060;BME280;56135;37.534;-122.308;2023-04-22T04:42:40;101921.16;;;14.68;100.00
69060;BME280;56135;37.534;-122.308;2023-04-22T04:45:07;101922.97;;;14.62;100.00
69060;BME280;56135;37.534;-122.308;2023-04-22T04:47:34;101905.25;;;14.61;100.00
69060;BME280;56135;37.534;-122.308;2023-04-22T04:50:00;101914.19;;;14.52;100.00
69060;BME280;56135;37.534;-122.308;2023-04-22T04:52:29;101917.78;;;14.46;100.00
69060;BME280;56135;37.534;-122.308;2023-04-22T04:54:56;101918.69;;;14.47;100.00
69060;BME280;56135;37.534;-122.308;2023-04-22T04:57:22;101914.34;;;14.38;100.00
69060;BME280;56135;37.534;-122.308;2023-04-22T04:59:48;101909.06;;;14.33;100.00
69060;BME280;56135;37.534;-122.308;2023-04-22T05:02:15;101913.63;;;14.22;100.00
69060;BME280;56135;37.534;-122.308;2023-04-22T05:04:41;101917.19;;;14.15;100.00
69060;BME280;56135;37.534;-122.308;2023-04-22T05:07:07;101923.41;;;14.15;100.00
69060;BME280;56135;37.534;-122.308;2023-04-22T05:09:33;101918.16;;;14.08;100.00
69060;BME280;56135;37.534;-122.308;2023-04-22T05:12:03;101917.34;;;13.96;100.00
69060;BME280;56135;37.534;-122.308;2023-04-22T05:14:29;101923.56;;;13.94;100.00
69060;BME280;56135;37.534;-122.308;2023-04-22T05:16:55;101921.81;;;13.94;100.00
69060;BME280;56135;37.534;-122.308;2023-04-22T05:19:21;101924.50;;;13.88;100.00
69060;BME280;56135;37.534;-122.308;2023-04-22T05:21:48;101931.66;;;13.80;100.00
69060;BME280;56135;37.534;-122.308;2023-04-22T05:24:14;101922.81;;;13.81;100.00
69060;BME280;56135;37.534;-122.308;2023-04-22T05:26:40;101922.84;;;13.75;100.00
69060;BME280;56135;37.534;-122.308;2023-04-22T05:29:06;101922.00;;;13.73;100.00
69060;BME280;56135;37.534;-122.308;2023-04-22T05:31:33;101915.84;;;13.67;100.00
69060;BME280;56135;37.534;-122.308;2023-04-22T05:33:59;101912.31;;;13.59;100.00
69060;BME280;56135;37.534;-122.308;2023-04-22T05:36:25;101918.59;;;13.46;100.00
69060;BME280;56135;37.534;-122.308;2023-04-22T05:38:52;101909.81;;;13.39;100.00
69060;BME280;56135;37.534;-122.308;2023-04-22T05:41:18;101908.03;;;13.37;100.00
69060;BME280;56135;37.534;-122.308;2023-04-22T05:43:45;101907.13;;;13.41;100.00
69060;BME280;56135;37.534;-122.308;2023-04-22T05:46:11;101902.72;;;13.43;100.00
69060;BME280;56135;37.534;-122.308;2023-04-22T05:48:37;101896.53;;;13.38;100.00
69060;BME280;56135;37.534;-122.308;2023-04-22T05:51:03;101889.50;;;13.30;100.00
69060;BME280;56135;37.534;-122.308;2023-04-22T05:53:30;101888.56;;;13.31;100.00
69060;BME280;56135;37.534;-122.308;2023-04-22T05:55:56;101886.81;;;13.32;100.00
69060;BME280;56135;37.534;-122.308;2023-04-22T05:58:22;101887.72;;;13.28;100.00
69060;BME280;56135;37.534;-122.308;2023-04-22T06:00:48;101890.34;;;13.35;100.00
69060;BME280;56135;37.534;-122.308;2023-04-22T06:03:15;101890.34;;;13.32;100.00
69060;BME280;56135;37.534;-122.308;2023-04-22T06:05:41;101885.97;;;13.22;100.00
69060;BME280;56135;37.534;-122.308;2023-04-22T06:08:09;101880.69;;;13.19;100.00
69060;BME280;56135;37.534;-122.308;2023-04-22T06:10:35;101884.28;;;13.12;100.00
69060;BME280;56135;37.534;-122.308;2023-04-22T06:13:01;101874.53;;;13.12;100.00
69060;BME280;56135;37.534;-122.308;2023-04-22T06:15:28;101878.06;;;13.11;100.00
69060;BME280;56135;37.534;-122.308;2023-04-22T06:17:54;101876.34;;;13.10;100.00
69060;BME280;56135;37.534;-122.308;2023-04-22T06:20:20;101879.00;;;13.04;100.00
69060;BME280;56135;37.534;-122.308;2023-04-22T06:22:47;101874.56;;;13.05;100.00
69060;BME280;56135;37.534;-122.308;2023-04-22T06:25:13;101875.50;;;12.99;100.00
69060;BME280;56135;37.534;-122.308;2023-04-22T06:27:39;101876.41;;;12.95;100.00
69060;BME280;56135;37.534;-122.308;2023-04-22T06:30:06;101883.47;;;12.93;100.00
69060;BME280;56135;37.534;-122.308;2023-04-22T06:32:36;101878.19;;;12.85;100.00
69060;BME280;56135;37.534;-122.308;2023-04-22T06:35:03;101876.44;;;12.85;100.00
69060;BME280;56135;37.534;-122.308;2023-04-22T06:37:29;101887.97;;;12.80;100.00
69060;BME280;56135;37.534;-122.308;2023-04-22T06:39:56;101872.91;;;12.82;100.00
69060;BME280;56135;37.534;-122.308;2023-04-22T06:42:22;101877.34;;;12.77;100.00
69060;BME280;56135;37.534;-122.308;2023-04-22T06:44:48;101880.91;;;12.71;100.00
69060;BME280;56135;37.534;-122.308;2023-04-22T06:47:14;101876.50;;;12.70;100.00
69060;BME280;56135;37.534;-122.308;2023-04-22T06:49:41;101872.13;;;12.61;100.00
69060;BME280;56135;37.534;-122.308;2023-04-22T06:52:09;101856.16;;;12.67;100.00
69060;BME280;56135;37.534;-122.308;2023-04-22T06:54:36;101859.69;;;12.66;100.00
69060;BME280;56135;37.534;-122.308;2023-04-22T06:57:02;101858.84;;;12.60;100.00
69060;BME280;56135;37.534;-122.308;2023-04-22T06:59:29;101866.81;;;12.61;100.00
69060;BME280;56135;37.534;-122.308;2023-04-22T07:01:55;101864.16;;;12.63;100.00
69060;BME280;56135;37.534;-122.308;2023-04-22T07:04:21;101855.34;;;12.56;100.00
69060;BME280;56135;37.534;-122.308;2023-04-22T07:06:47;101869.47;;;12.58;100.00
69060;BME280;56135;37.534;-122.308;2023-04-22T07:09:14;101860.66;;;12.56;100.00
69060;BME280;56135;37.534;-122.308;2023-04-22T07:11:40;101865.03;;;12.56;100.00
69060;BME280;56135;37.534;-122.308;2023-04-22T07:14:06;101857.13;;;12.51;100.00
69060;BME280;56135;37.534;-122.308;2023-04-22T07:16:33;101863.34;;;12.41;100.00
69060;BME280;56135;37.534;-122.308;2023-04-22T07:18:59;101858.03;;;12.41;100.00
69060;BME280;56135;37.534;-122.308;2023-04-22T07:21:25;101848.31;;;12.38;100.00
69060;BME280;56135;37.534;-122.308;2023-04-22T07:23:51;101855.41;;;12.31;100.00
69060;BME280;56135;37.534;-122.308;2023-04-22T07:26:18;101849.22;;;12.29;100.00
69060;BME280;56135;37.534;-122.308;2023-04-22T07:28:44;101844.81;;;12.28;100.00
69060;BME280;56135;37.534;-122.308;2023-04-22T07:31:10;101841.28;;;12.26;100.00
69060;BME280;56135;37.534;-122.308;2023-04-22T07:33:36;101837.75;;;12.23;100.00
69060;BME280;56135;37.534;-122.308;2023-04-22T07:36:03;101845.69;;;12.21;100.00
69060;BME280;56135;37.534;-122.308;2023-04-22T07:38:29;101840.41;;;12.18;100.00
69060;BME280;56135;37.534;-122.308;2023-04-22T07:40:55;101849.25;;;12.17;100.00
69060;BME280;56135;37.534;-122.308;2023-04-22T07:43:22;101841.28;;;12.20;100.00
69060;BME280;56135;37.534;-122.308;2023-04-22T07:45:48;101841.31;;;12.15;100.00
69060;BME280;56135;37.534;-122.308;2023-04-22T07:48:14;101843.94;;;12.17;100.00
69060;BME280;56135;37.534;-122.308;2023-04-22T07:50:40;101846.59;;;12.15;100.00
69060;BME280;56135;37.534;-122.308;2023-04-22T07:53:07;101845.75;;;12.15;100.00
69060;BME280;56135;37.534;-122.308;2023-04-22T07:55:35;101843.97;;;12.09;100.00
69060;BME280;56135;37.534;-122.308;2023-04-22T07:58:01;101840.44;;;12.04;100.00
69060;BME280;56135;37.534;-122.308;2023-04-22T08:00:34;101837.81;;;11.99;100.00
69060;BME280;56135;37.534;-122.308;2023-04-22T08:03:01;101839.56;;;12.00;100.00
69060;BME280;56135;37.534;-122.308;2023-04-22T08:05:27;101832.50;;;11.99;100.00
69060;BME280;56135;37.534;-122.308;2023-04-22T08:07:53;101827.22;;;11.98;100.00
69060;BME280;56135;37.534;-122.308;2023-04-22T08:10:19;101827.19;;;11.95;100.00
69060;BME280;56135;37.534;-122.308;2023-04-22T08:12:46;101818.34;;;11.87;100.00
69060;BME280;56135;37.534;-122.308;2023-04-22T08:15:12;101808.66;;;11.84;100.00
69060;BME280;56135;37.534;-122.308;2023-04-22T08:17:38;101813.09;;;11.82;100.00
69060;BME280;56135;37.534;-122.308;2023-04-22T08:20:05;101807.78;;;11.82;100.00
69060;BME280;56135;37.534;-122.308;2023-04-22T08:22:32;101803.38;;;11.81;100.00
69060;BME280;56135;37.534;-122.308;2023-04-22T08:24:58;101802.50;;;11.80;100.00
69060;BME280;56135;37.534;-122.308;2023-04-22T08:27:25;101804.25;;;11.78;100.00
69060;BME280;56135;37.534;-122.308;2023-04-22T08:29:51;101799.81;;;11.79;100.00
69060;BME280;56135;37.534;-122.308;2023-04-22T08:32:17;101802.50;;;11.80;100.00
69060;BME280;56135;37.534;-122.308;2023-04-22T08:34:47;101808.66;;;11.81;100.00
69060;BME280;56135;37.534;-122.308;2023-04-22T08:37:13;101795.41;;;11.76;100.00
69060;BME280;56135;37.534;-122.308;2023-04-22T08:39:40;101798.06;;;11.72;100.00
69060;BME280;56135;37.534;-122.308;2023-04-22T08:42:06;101791.00;;;11.72;100.00
69060;BME280;56135;37.534;-122.308;2023-04-22T08:44:34;101790.16;;;11.70;100.00
69060;BME280;56135;37.534;-122.308;2023-04-22T08:47:00;101792.78;;;11.65;100.00
69060;BME280;56135;37.534;-122.308;2023-04-22T08:49:29;101803.38;;;11.62;100.00
69060;BME280;56135;37.534;-122.308;2023-04-22T08:51:55;101797.19;;;11.60;100.00
69060;BME280;56135;37.534;-122.308;2023-04-22T08:54:25;101796.34;;;11.55;100.00
69060;BME280;56135;37.534;-122.308;2023-04-22T08:56:52;101794.53;;;11.51;100.00
69060;BME280;56135;37.534;-122.308;2023-04-22T08:59:19;101798.97;;;11.50;100.00
69060;BME280;56135;37.534;-122.308;2023-04-22T09:01:51;101802.47;;;11.49;100.00
69060;BME280;56135;37.534;-122.308;2023-04-22T09:04:18;101799.84;;;11.51;100.00
69060;BME280;56135;37.534;-122.308;2023-04-22T09:06:45;101793.69;;;11.47;100.00
69060;BME280;56135;37.534;-122.308;2023-04-22T09:09:11;101789.28;;;11.45;100.00
69060;BME280;56135;37.534;-122.308;2023-04-22T09:11:37;101789.25;;;11.35;100.00
69060;BME280;56135;37.534;-122.308;2023-04-22T09:14:04;101789.25;;;11.32;100.00
69060;BME280;56135;37.534;-122.308;2023-04-22T09:16:32;101785.72;;;11.33;100.00
69060;BME280;56135;37.534;-122.308;2023-04-22T09:18:58;101785.72;;;11.32;100.00
69060;BME280;56135;37.534;-122.308;2023-04-22T09:21:26;101774.25;;;11.25;100.00
69060;BME280;56135;37.534;-122.308;2023-04-22T09:23:56;101769.88;;;11.27;100.00
69060;BME280;56135;37.534;-122.308;2023-04-22T09:26:27;101755.75;;;11.27;100.00
69060;BME280;56135;37.534;-122.308;2023-04-22T09:28:57;101755.75;;;11.25;100.00
69060;BME280;56135;37.534;-122.308;2023-04-22T09:31:26;101757.50;;;11.18;100.00
69060;BME280;56135;37.534;-122.308;2023-04-22T09:33:58;101755.75;;;11.16;100.00
69060;BME280;56135;37.534;-122.308;2023-04-22T09:36:26;101747.81;;;11.13;100.00
69060;BME280;56135;37.534;-122.308;2023-04-22T09:38:54;101740.75;;;11.10;100.00
69060;BME280;56135;37.534;-122.308;2023-04-22T09:41:35;101746.03;;;11.13;100.00
69060;BME280;56135;37.534;-122.308;2023-04-22T09:44:02;101743.41;;;11.12;100.00
69060;BME280;56135;37.534;-122.308;2023-04-22T09:46:30;101747.78;;;11.08;100.00
69060;BME280;56135;37.534;-122.308;2023-04-22T09:48:58;101746.94;;;11.06;100.00
69060;BME280;56135;37.534;-122.308;2023-04-22T09:51:25;101736.31;;;11.03;100.00
69060;BME280;56135;37.534;-122.308;2023-04-22T09:54:05;101736.31;;;11.01;100.00
69060;BME280;56135;37.534;-122.308;2023-04-22T09:56:50;101731.03;;;11.01;100.00
69060;BME280;56135;37.534;-122.308;2023-04-22T09:59:24;101738.09;;;11.01;100.00
69060;BME280;56135;37.534;-122.308;2023-04-22T10:01:52;101736.34;;;10.98;100.00
69060;BME280;56135;37.534;-122.308;2023-04-22T10:04:20;101722.22;;;10.96;100.00
69060;BME280;56135;37.534;-122.308;2023-04-22T10:06:48;101721.34;;;10.94;100.00
69060;BME280;56135;37.534;-122.308;2023-04-22T10:09:20;101712.50;;;10.95;100.00
69060;BME280;56135;37.534;-122.308;2023-04-22T10:11:48;101718.72;;;10.94;100.00
69060;BME280;56135;37.534;-122.308;2023-04-22T10:14:15;101713.41;;;10.96;100.00
69060;BME280;56135;37.534;-122.308;2023-04-22T10:16:44;101716.91;;;10.89;100.00
69060;BME280;56135;37.534;-122.308;2023-04-22T10:19:16;101720.47;;;10.89;100.00
69060;BME280;56135;37.534;-122.308;2023-04-22T10:21:46;101709.88;;;10.84;100.00
69060;BME280;56135;37.534;-122.308;2023-04-22T10:24:17;101712.50;;;10.83;100.00
69060;BME280;56135;37.534;-122.308;2023-04-22T10:26:57;101709.00;;;10.84;100.00
69060;BME280;56135;37.534;-122.308;2023-04-22T10:29:26;101711.63;;;10.82;100.00
69060;BME280;56135;37.534;-122.308;2023-04-22T10:31:53;101714.25;;;10.78;100.00
69060;BME280;56135;37.534;-122.308;2023-04-22T10:34:20;101706.31;;;10.78;100.00
69060;BME280;56135;37.534;-122.308;2023-04-22T10:37:00;101713.38;;;10.79;100.00
69060;BME280;56135;37.534;-122.308;2023-04-22T10:39:28;101708.09;;;10.77;100.00
69060;BME280;56135;37.534;-122.308;2023-04-22T10:44:29;101703.69;;;10.64;100.00
69060;BME280;56135;37.534;-122.308;2023-04-22T10:47:09;101703.66;;;10.65;100.00
69060;BME280;56135;37.534;-122.308;2023-04-22T10:49:35;101693.97;;;10.61;100.00
69060;BME280;56135;37.534;-122.308;2023-04-22T10:52:03;101695.72;;;10.61;100.00
69060;BME280;56135;37.534;-122.308;2023-04-22T10:57:03;101698.34;;;10.61;100.00
69060;BME280;56135;37.534;-122.308;2023-04-22T10:59:31;101692.19;;;10.65;100.00
69060;BME280;56135;37.534;-122.308;2023-04-22T11:02:02;101686.06;;;10.61;100.00
69060;BME280;56135;37.534;-122.308;2023-04-22T11:04:30;101686.94;;;10.57;100.00
69060;BME280;56135;37.534;-122.308;2023-04-22T11:09:59;101693.06;;;10.48;100.00
69060;BME280;56135;37.534;-122.308;2023-04-22T11:15:08;101686.00;;;10.41;100.00
69060;BME280;56135;37.534;-122.308;2023-04-22T11:17:36;101685.09;;;10.41;100.00
69060;BME280;56135;37.534;-122.308;2023-04-22T11:20:04;101680.69;;;10.37;100.00
69060;BME280;56135;37.534;-122.308;2023-04-22T11:22:39;101691.25;;;10.35;100.00
69060;BME280;56135;37.534;-122.308;2023-04-22T11:25:06;101683.28;;;10.30;100.00
69060;BME280;56135;37.534;-122.308;2023-04-22T11:27:35;101674.47;;;10.30;100.00
69060;BME280;56135;37.534;-122.308;2023-04-22T11:30:22;101685.91;;;10.30;100.00
69060;BME280;56135;37.534;-122.308;2023-04-22T11:32:53;101680.63;;;10.26;100.00
69060;BME280;56135;37.534;-122.308;2023-04-22T11:35:24;101689.41;;;10.20;100.00
69060;BME280;56135;37.534;-122.308;2023-04-22T11:37:59;101688.47;;;10.12;100.00
69060;BME280;56135;37.534;-122.308;2023-04-22T11:40:34;101683.19;;;10.04;100.00
69060;BME280;56135;37.534;-122.308;2023-04-22T11:43:03;101689.34;;;10.08;100.00
69060;BME280;56135;37.534;-122.308;2023-04-22T11:45:32;101681.44;;;10.08;100.00
69060;BME280;56135;37.534;-122.308;2023-04-22T11:47:59;101672.59;;;10.02;100.00
69060;BME280;56135;37.534;-122.308;2023-04-22T11:50:29;101667.31;;;9.98;100.00
69060;BME280;56135;37.534;-122.308;2023-04-22T11:53:04;101669.06;;;9.96;100.00
69060;BME280;56135;37.534;-122.308;2023-04-22T11:55:32;101662.00;;;9.93;100.00
69060;BME280;56135;37.534;-122.308;2023-04-22T11:58:06;101659.34;;;9.92;100.00
69060;BME280;56135;37.534;-122.308;2023-04-22T12:00:35;101663.75;;;9.88;100.00
69060;BME280;56135;37.534;-122.308;2023-04-22T12:03:29;101660.22;;;9.88;100.00
69060;BME280;56135;37.534;-122.308;2023-04-22T12:06:00;101665.50;;;9.86;100.00
69060;BME280;56135;37.534;-122.308;2023-04-22T12:08:34;101663.72;;;9.82;100.00
69060;BME280;56135;37.534;-122.308;2023-04-22T12:11:12;101665.47;;;9.80;100.00
69060;BME280;56135;37.534;-122.308;2023-04-22T12:16:12;101665.47;;;9.77;100.00
69060;BME280;56135;37.534;-122.308;2023-04-22T12:21:16;101655.78;;;9.77;100.00
69060;BME280;56135;37.534;-122.308;2023-04-22T12:23:43;101656.63;;;9.75;100.00
69060;BME280;56135;37.534;-122.308;2023-04-22T12:26:14;101639.94;;;9.70;100.00
69060;BME280;56135;37.534;-122.308;2023-04-22T12:28:42;101644.31;;;9.71;100.00
69060;BME280;56135;37.534;-122.308;2023-04-22T12:31:09;101640.78;;;9.68;100.00